createdAt,value
2023-04-18T00:00:16.521Z,20.4
2023-04-18T00:05:15.098Z,20.4
2023-04-18T00:10:18.308Z,20.4
2023-04-18T00:15:20.649Z,20.3
2023-04-18T00:20:22.660Z,20.3
2023-04-18T00:25:22.400Z,20.3
2023-04-18T00:30:16.481Z,20.3
2023-04-18T00:35:18.479Z,20.3
2023-04-18T00:40:20.549Z,20.3
2023-04-18T00:45:20.519Z,20.3
2023-04-18T00:50:20.455Z,20.4
2023-04-18T00:55:20.324Z,20.3
2023-04-18T01:00:16.484Z,20.4
2023-04-18T01:05:18.376Z,20.4
2023-04-18T01:10:18.294Z,20.4
2023-04-18T01:15:18.122Z,20.4
2023-04-18T01:20:18.140Z,20.4
2023-04-18T01:25:17.966Z,20.4
2023-04-18T01:30:24.082Z,20.4
2023-04-18T01:35:22.259Z,20.4
2023-04-18T01:40:22.311Z,20.4
2023-04-18T01:45:18.848Z,20.4
2023-04-18T01:50:15.600Z,20.4
2023-04-18T01:55:20.797Z,20.4
2023-04-18T02:00:13.758Z,20.3
2023-04-18T02:05:15.693Z,20.4
2023-04-18T02:10:14.646Z,20.3
2023-04-18T02:15:18.501Z,20.3
2023-04-18T02:20:30.658Z,20.3
2023-04-18T02:25:18.704Z,20.3
2023-04-18T02:30:20.539Z,20.3
2023-04-18T02:35:14.626Z,20.3
2023-04-18T02:40:18.554Z,20.3
2023-04-18T02:45:14.763Z,20.3
2023-04-18T02:50:19.686Z,20.3
2023-04-18T02:55:22.691Z,20.3
2023-04-18T03:00:18.716Z,20.3
2023-04-18T03:05:19.248Z,20.2
2023-04-18T03:10:14.487Z,20.3
2023-04-18T03:15:16.276Z,20.2
2023-04-18T03:20:16.708Z,20.2
2023-04-18T03:25:24.677Z,20.2
2023-04-18T03:30:14.460Z,20.2
2023-04-18T03:35:18.469Z,20.2
2023-04-18T03:40:16.362Z,20.2
2023-04-18T03:45:22.321Z,20.2
2023-04-18T03:50:18.158Z,20.2
2023-04-18T03:55:21.932Z,20.2
2023-04-18T04:00:15.938Z,20.2
2023-04-18T04:05:16.263Z,20.2
2023-04-18T04:10:14.475Z,20.2
2023-04-18T04:15:16.696Z,20.2
2023-04-18T04:20:15.661Z,20.2
2023-04-18T04:25:20.569Z,20.2
2023-04-18T04:30:20.712Z,20.2
2023-04-18T04:35:18.370Z,20.2
2023-04-18T04:40:18.438Z,20.2
2023-04-18T04:45:18.554Z,20.2
2023-04-18T04:50:14.454Z,20.2
2023-04-18T04:55:24.554Z,20.2
2023-04-18T05:00:18.842Z,20.3
2023-04-18T05:05:17.779Z,20.3
2023-04-18T05:10:15.999Z,20.4
2023-04-18T05:15:14.051Z,20.4
2023-04-18T05:20:18.079Z,20.4
2023-04-18T05:25:16.620Z,20.5
2023-04-18T05:30:20.771Z,20.5
2023-04-18T05:40:17.725Z,20.6
2023-04-18T05:45:16.715Z,20.7
2023-04-18T05:50:18.718Z,20.7
2023-04-18T05:55:24.570Z,20.6
2023-04-18T06:00:16.438Z,20.7
2023-04-18T06:05:17.871Z,20.7
2023-04-18T06:10:14.583Z,20.7
2023-04-18T06:15:14.534Z,20.8
2023-04-18T06:20:16.547Z,20.8
2023-04-18T06:25:14.271Z,20.8
2023-04-18T06:30:14.080Z,20.8
2023-04-18T06:35:15.955Z,20.7
2023-04-18T06:40:21.690Z,20.7
2023-04-18T06:45:16.805Z,20.7
2023-04-18T06:50:17.780Z,20.7
2023-04-18T06:55:19.825Z,20.7
2023-04-18T07:00:15.907Z,20.7
2023-04-18T07:05:21.680Z,20.8
2023-04-18T07:10:20.319Z,20.8
2023-04-18T07:15:16.212Z,20.8
2023-04-18T07:20:18.412Z,20.8
2023-04-18T07:25:16.388Z,20.8
2023-04-18T07:30:14.234Z,20.8
2023-04-18T07:35:20.334Z,20.8
2023-04-18T07:40:14.113Z,20.8
2023-04-18T07:45:22.295Z,20.7
2023-04-18T07:50:20.241Z,20.7
2023-04-18T07:55:24.440Z,20.7
2023-04-18T08:00:14.492Z,20.7
2023-04-18T08:05:16.973Z,20.8
2023-04-18T08:10:14.334Z,20.8
2023-04-18T08:15:22.124Z,20.7
2023-04-18T08:20:20.234Z,20.7
2023-04-18T08:25:21.228Z,20.7
2023-04-18T08:30:14.068Z,20.7
2023-04-18T08:35:19.829Z,20.7
2023-04-18T08:40:19.649Z,20.8
2023-04-18T08:45:16.483Z,20.8
2023-04-18T08:50:18.325Z,20.8
2023-04-18T08:55:20.167Z,20.8
2023-04-18T09:00:20.674Z,20.8
2023-04-18T09:05:20.420Z,20.9
2023-04-18T09:10:22.192Z,20.9
2023-04-18T09:15:19.941Z,20.9
2023-04-18T09:20:21.953Z,20.9
2023-04-18T09:25:13.807Z,21
2023-04-18T09:30:13.637Z,21
2023-04-18T09:35:20.765Z,21
2023-04-18T09:40:14.314Z,21
2023-04-18T09:45:20.556Z,21
2023-04-18T09:50:22.428Z,21
2023-04-18T09:55:14.322Z,21
2023-04-18T10:00:14.481Z,21
2023-04-18T10:05:14.525Z,21
2023-04-18T10:10:16.947Z,21.1
2023-04-18T10:15:20.044Z,21.1
2023-04-18T10:20:17.649Z,21.1
2023-04-18T10:25:15.759Z,21.1
2023-04-18T10:30:18.890Z,21.1
2023-04-18T10:35:23.627Z,21.1
2023-04-18T10:40:18.617Z,21.1
2023-04-18T10:45:14.460Z,21.1
2023-04-18T10:55:17.762Z,21.1
2023-04-18T11:00:13.759Z,21.1
2023-04-18T11:05:16.736Z,21.1
2023-04-18T11:10:15.892Z,21.1
2023-04-18T11:15:15.805Z,21.1
2023-04-18T11:20:18.952Z,21.1
2023-04-18T11:25:20.221Z,21.1
2023-04-18T11:30:18.154Z,21.1
2023-04-18T11:35:14.267Z,21.1
2023-04-18T11:40:20.055Z,21.1
2023-04-18T11:45:16.200Z,21.2
2023-04-18T11:50:16.188Z,21.2
2023-04-18T11:55:20.801Z,21.2
2023-04-18T12:00:23.678Z,21.2
2023-04-18T12:05:17.818Z,21.2
2023-04-18T12:10:18.488Z,21.3
2023-04-18T12:15:18.593Z,21.3
2023-04-18T12:20:24.836Z,21.3
2023-04-18T12:25:19.721Z,21.3
2023-04-18T12:30:15.814Z,21.3
2023-04-18T12:35:18.023Z,21.3
2023-04-18T12:40:18.091Z,21.3
2023-04-18T12:45:13.932Z,21.3
2023-04-18T12:50:17.858Z,21.3
2023-04-18T12:55:13.559Z,21.4
2023-04-18T13:00:24.623Z,21.4
2023-04-18T13:05:16.263Z,21.4
2023-04-18T13:10:20.567Z,21.4
2023-04-18T13:15:20.593Z,21.4
2023-04-18T13:20:16.562Z,21.5
2023-04-18T13:25:14.404Z,21.5
2023-04-18T13:30:14.556Z,21.5
2023-04-18T13:35:24.501Z,21.5
2023-04-18T13:40:20.755Z,21.5
2023-04-18T13:45:15.671Z,21.5
2023-04-18T13:50:22.491Z,21.5
2023-04-18T13:55:16.244Z,21.6
2023-04-18T14:00:22.569Z,21.6
2023-04-18T14:05:14.879Z,21.6
2023-04-18T14:10:23.747Z,21.6
2023-04-18T14:15:17.604Z,21.6
2023-04-18T14:20:16.561Z,21.6
2023-04-18T14:25:14.618Z,21.6
2023-04-18T14:30:18.511Z,21.6
2023-04-18T14:35:20.251Z,21.6
2023-04-18T14:40:22.529Z,21.6
2023-04-18T14:45:16.421Z,21.6
2023-04-18T14:50:22.663Z,21.6
2023-04-18T14:55:15.541Z,21.6
2023-04-18T15:00:14.264Z,21.6
2023-04-18T15:05:20.788Z,21.6
2023-04-18T15:10:13.906Z,21.6
2023-04-18T15:15:18.542Z,21.6
2023-04-18T15:20:18.567Z,21.6
2023-04-18T15:25:22.350Z,21.6
2023-04-18T15:30:18.166Z,21.6
2023-04-18T15:35:17.916Z,21.6
2023-04-18T15:40:15.921Z,21.6
2023-04-18T15:45:17.982Z,21.6
2023-04-18T15:50:19.934Z,21.6
2023-04-18T15:55:17.911Z,21.6
2023-04-18T16:00:13.978Z,21.5
2023-04-18T16:05:16.223Z,21.6
2023-04-18T16:10:22.564Z,21.6
2023-04-18T16:15:18.724Z,21.6
2023-04-18T16:20:20.201Z,21.6
2023-04-18T16:25:22.465Z,21.6
2023-04-18T16:30:26.492Z,21.6
2023-04-18T16:35:18.238Z,21.6
2023-04-18T16:40:26.199Z,21.6
2023-04-18T16:45:16.076Z,21.6
2023-04-18T16:50:28.334Z,21.6
2023-04-18T16:55:18.148Z,21.6
2023-04-18T17:00:18.039Z,21.6
2023-04-18T17:05:19.069Z,21.6
2023-04-18T17:10:17.830Z,21.6
2023-04-18T17:15:13.770Z,21.6
2023-04-18T17:20:15.735Z,21.6
2023-04-18T17:25:15.476Z,21.6
2023-04-18T17:30:14.634Z,21.6
2023-04-18T17:35:16.839Z,21.6
2023-04-18T17:40:15.751Z,21.6
2023-04-18T17:45:13.719Z,21.6
2023-04-18T17:50:19.759Z,21.6
2023-04-18T17:55:17.818Z,21.6
2023-04-18T18:00:25.897Z,21.5
2023-04-18T18:05:22.371Z,21.5
2023-04-18T18:10:24.453Z,21.5
2023-04-18T18:15:14.571Z,21.4
2023-04-18T18:20:22.477Z,21.4
2023-04-18T18:25:14.199Z,21.4
2023-04-18T18:30:18.217Z,21.4
2023-04-18T18:35:20.127Z,21.3
2023-04-18T18:40:15.970Z,21.3
2023-04-18T18:45:16.050Z,21.3
2023-04-18T18:50:15.824Z,21.3
2023-04-18T18:55:21.962Z,21.3
2023-04-18T19:00:17.823Z,21.4
2023-04-18T19:05:30.130Z,21.4
2023-04-18T19:10:24.136Z,21.4
2023-04-18T19:15:22.037Z,21.4
2023-04-18T19:20:23.864Z,21.5
2023-04-18T19:25:17.732Z,21.5
2023-04-18T19:30:16.764Z,21.6
2023-04-18T19:35:15.700Z,21.6
2023-04-18T19:40:15.961Z,21.6
2023-04-18T19:45:18.138Z,21.6
2023-04-18T19:50:15.960Z,21.6
2023-04-18T19:55:20.152Z,21.6
2023-04-18T20:00:20.022Z,21.7
2023-04-18T20:05:27.276Z,21.7
2023-04-18T20:10:24.226Z,21.6
2023-04-18T20:15:14.147Z,21.6
2023-04-18T20:20:14.110Z,21.6
2023-04-18T20:25:13.952Z,21.6
2023-04-18T20:30:23.026Z,21.5
2023-04-18T20:35:19.929Z,21.5
2023-04-18T20:40:23.035Z,21.5
2023-04-18T20:45:19.806Z,21.5
2023-04-18T20:50:22.622Z,21.5
2023-04-18T20:55:24.554Z,21.5
2023-04-18T21:00:25.611Z,21.5
2023-04-18T21:05:16.265Z,21.5
2023-04-18T21:10:27.350Z,21.4
2023-04-18T21:15:22.216Z,21.4
2023-04-18T21:20:23.104Z,21.3
2023-04-18T21:25:18.042Z,21.3
2023-04-18T21:30:23.012Z,21.3
2023-04-18T21:35:21.392Z,21.3
2023-04-18T21:40:23.923Z,21.2
2023-04-18T21:45:17.772Z,21.2
2023-04-18T21:50:19.032Z,21.2
2023-04-18T21:55:15.711Z,21.2
2023-04-18T22:00:24.137Z,21.1
2023-04-18T22:05:16.263Z,21.1
2023-04-18T22:10:27.439Z,21.1
2023-04-18T22:15:18.222Z,21.1
2023-04-18T22:20:19.064Z,21
2023-04-18T22:25:16.113Z,21
2023-04-18T22:30:19.132Z,21
2023-04-18T22:35:20.133Z,21
2023-04-18T22:40:13.854Z,21
2023-04-18T22:45:13.831Z,20.9
2023-04-18T22:50:15.640Z,20.9
2023-04-18T22:55:18.690Z,20.9
2023-04-18T23:00:16.890Z,20.9
2023-04-18T23:05:15.835Z,20.8
2023-04-18T23:10:17.809Z,20.8
2023-04-18T23:15:15.644Z,20.8
2023-04-18T23:20:16.502Z,20.8
2023-04-18T23:25:14.485Z,20.8
2023-04-18T23:30:16.363Z,20.7
2023-04-18T23:35:16.509Z,20.7
2023-04-18T23:40:16.493Z,20.7
2023-04-18T23:45:24.540Z,20.7
2023-04-18T23:50:18.423Z,20.6
2023-04-18T23:55:26.407Z,20.6
